Hauptseite
METAR-TAF:

METAR-TAF

Flughäfen :

Flughafen Lüttich

Lüttich, Belgien

Breite: 50-39N, Länge: 005-27E, Höhe: 186 m

Beobachtung

Neuester Wetterbericht von vor 39 Minuten, um 12:50 UTC
Wind 11 kt aus Süd/Südwest
Temperatur 22°C
Luftfeuchtigkeit 43%
Luftdruck 1013 hPa
Sichtweite 10 km oder mehr
keine Wolken unter 1500 m und keine Kumulonimbus oder Gewitterwolken

METAR: EBLG 151250Z 20011KT CAVOK 22/09 Q1013 NOSIG

Zeit: 15:29 (13:29 UTC)

Prognose

Neuester Wetterbericht von vor 2 Stunden und 29 Minuten, um 11:00 UTC
Gültige Prognose vom 15 um 12 UTC bis 16 um 18 UTC
Wind 5 kt aus Süd
Sichtweite 10 km oder mehr
keine Wolken unter 1500 m und keine Kumulonimbus oder Gewitterwolken

TAF: EBLG 151100Z 1512/1618 18005KT CAVOK

Wetterbeobachtungen und Prognosen von mehr als 4000 Flughäfen (METAR und TAF Bericht).

Die verfügbaren Stationen werden durch gelbe und rote Markierungen auf der Karte dargestellt.

Führen Sie die Maus auf sie, um den Namen der Station zu sehen.

Darauf klicken, um die Beobachtung von Wetterbeobachtungen und Prognosen zu sehen.

Um die Karte zu ändern : klicken Sie auf den grünen Tasten mit einem schwarzen Kreuz Zum Vergrößern, auf den grünen Button mit einem Gedankenstrich zu verkleinern, oder auf die grünen Pfeile für benachbarte Karten.


METAR-TAF: